ADDS METAR Data INFO
IDs: Format: Raw Decoded Include TAF

Data at: 0053 UTC 22 Oct 2017

KCBK 220035Z AUTO 31008KT 10SM CLR 06/M03 A3003 RMK AO2
KCBK 220015Z AUTO 31006KT 10SM CLR 10/M04 A3003 RMK AO2
KCBK 212355Z AUTO 31008KT 10SM CLR 13/M04 A3002 RMK AO2
KCBK 212335Z AUTO 31010KT 10SM CLR 14/M04 A3002 RMK AO2
KCBK 212315Z AUTO 30009G18KT 10SM CLR 15/M04 A3001 RMK AO2
KCBK 212255Z AUTO 30014G19KT 10SM CLR 16/M05 A3000 RMK AO2
KCBK 212235Z AUTO 31010G17KT 10SM CLR 16/M02 A2999 RMK AO2
KCBK 212215Z AUTO 33012G21KT 10SM CLR 17/M02 A2998 RMK AO2
KCBK 212155Z AUTO 33014G22KT 10SM CLR 17/M02 A2997 RMK AO2
KCBK 212135Z AUTO 33013G20KT 10SM CLR 17/M01 A2996 RMK AO2
KCBK 212115Z AUTO 32017G24KT 10SM BKN120 17/M02 A2996 RMK AO2
KCBK 212055Z AUTO 33010G22KT 10SM OVC120 17/M01 A2996 RMK AO2
KCBK 212035Z AUTO 33014G20KT 10SM BKN110 17/M01 A2995 RMK AO2
KCBK 212015Z AUTO 33016G22KT 10SM SCT110 17/M01 A2995 RMK AO2
KCBK 211955Z AUTO 32018G25KT 10SM BKN110 16/00 A2994 RMK AO2
KCBK 211935Z AUTO 34015G23KT 10SM SCT100 16/00 A2993 RMK AO2
KCBK 211915Z AUTO 32016G25KT 10SM BKN100 14/00 A2993 RMK AO2
KCBK 211855Z AUTO 33021G28KT 10SM SCT070 BKN090 BKN110 16/00 A2993 RMK AO2
KCBK 211835Z AUTO 34013G23KT 10SM SCT050 SCT070 OVC100 13/01 A2995 RMK AO2
KCBK 211815Z AUTO 34018G25KT 10SM BKN100 13/01 A2995 RMK AO2
KCBK 211755Z AUTO 33020G28KT 10SM OVC100 12/01 A2994 RMK AO2
KCBK 211735Z AUTO 33018G26KT 10SM BKN100 12/02 A2994 RMK AO2
KCBK 211715Z AUTO 33019G29KT 10SM SCT110 12/02 A2993 RMK AO2
KCBK 211655Z AUTO 34023G29KT 10SM SCT120 12/02 A2991 RMK AO2
KCBK 211635Z AUTO 33023G31KT 10SM SCT110 11/03 A2990 RMK AO2
KCBK 211615Z AUTO 33024G32KT 10SM CLR 11/03 A2989 RMK AO2
KCBK 211555Z AUTO 33019G29KT 10SM CLR 11/03 A2987 RMK AO2
KCBK 211535Z AUTO 33025G29KT 10SM CLR 11/01 A2985 RMK AO2
KCBK 211515Z AUTO 31022G33KT 10SM CLR 10/01 A2985 RMK AO2
KCBK 211455Z AUTO 32019G38KT 7SM SCT120 12/00 A2983 RMK AO2
KCBK 211435Z AUTO 33027G37KT 7SM BKN120 12/M01 A2980 RMK AO2
KCBK 211415Z AUTO 32022G30KT 10SM SCT120 12/M01 A2979 RMK AO2
KCBK 211355Z AUTO 32023G30KT 10SM CLR 12/M02 A2976 RMK AO2
KCBK 211335Z AUTO 31019G28KT 10SM CLR 12/M02 A2976 RMK AO2
KCBK 211315Z AUTO 31019G27KT 10SM CLR 12/M01 A2973 RMK AO2
KCBK 211255Z AUTO 31016G27KT 10SM CLR 12/M01 A2971 RMK AO2
KCBK 211235Z AUTO 31021G29KT 10SM CLR 12/00 A2971 RMK AO2
KCBK 211215Z AUTO 31019G28KT 10SM CLR 12/01 A2969 RMK AO2
KCBK 211155Z AUTO 32019G24KT 10SM CLR 12/02 A2966 RMK AO2
KCBK 211135Z AUTO 31018G23KT 10SM CLR 12/03 A2964 RMK AO2
KCBK 211115Z AUTO 31016G24KT 10SM CLR 12/04 A2964 RMK AO2
KCBK 211055Z AUTO 30015G24KT 10SM CLR 13/05 A2962 RMK AO2
KCBK 211035Z AUTO 30018G29KT 10SM CLR 13/05 A2961 RMK AO2
KCBK 211015Z AUTO 29014KT 10SM CLR 12/06 A2959 RMK AO2
KCBK 210955Z AUTO 27010G16KT 10SM CLR 13/07 A2958 RMK AO2
KCBK 210935Z AUTO 25010KT 10SM CLR 14/10 A2957 RMK AO2
KCBK 210915Z AUTO 24012KT 10SM CLR 15/10 A2956 RMK AO2
KCBK 210855Z AUTO 20011G18KT 10SM CLR 16/11 A2952 RMK AO2
KCBK 210835Z AUTO 20011G18KT 10SM CLR 16/11 A2952 RMK AO2
KCBK 210815Z AUTO 20011G16KT 10SM CLR 17/11 A2952 RMK AO2
KCBK 210755Z AUTO 20011G17KT 10SM CLR 17/11 A2952 RMK AO2
KCBK 210735Z AUTO 19014G19KT 10SM CLR 17/11 A2952 RMK AO2
KCBK 210715Z AUTO 19013G19KT 10SM CLR 17/11 A2952 RMK AO2
KCBK 210655Z AUTO 18012G17KT 10SM CLR 17/11 A2952 RMK AO2
KCBK 210635Z AUTO 19012G16KT 10SM CLR 17/12 A2952 RMK AO2
KCBK 210615Z AUTO 18012G19KT 10SM CLR 17/12 A2952 RMK AO2
KCBK 210555Z AUTO 19011G19KT 10SM CLR 17/12 A2952 RMK AO2
KCBK 210535Z AUTO 18012G17KT 10SM CLR 17/12 A2953 RMK AO2
KCBK 210515Z AUTO 18013G19KT 10SM CLR 18/13 A2953 RMK AO2
KCBK 210455Z AUTO 18015G22KT 10SM CLR 18/13 A2953 RMK AO2
KCBK 210435Z AUTO 17015G23KT 10SM CLR 18/13 A2953 RMK AO2
KCBK 210415Z AUTO 17016G22KT 10SM CLR 18/13 A2953 RMK AO2
KCBK 210355Z AUTO 17017G22KT 10SM CLR 19/13 A2953 RMK AO2
KCBK 210335Z AUTO 16017G26KT 10SM CLR 18/13 A2952 RMK AO2
KCBK 210315Z AUTO 16017G24KT 10SM CLR 18/13 A2953 RMK AO2
KCBK 210255Z AUTO 15017G23KT 10SM CLR 19/13 A2953 RMK AO2
KCBK 210235Z AUTO 16017G23KT 10SM CLR 19/13 A2954 RMK AO2
KCBK 210215Z AUTO 16018G23KT 10SM CLR 19/13 A2954 RMK AO2
KCBK 210155Z AUTO 15016G21KT 10SM CLR 20/13 A2955 RMK AO2
KCBK 210135Z AUTO 15016G21KT 10SM CLR 20/13 A2955 RMK AO2
KCBK 210115Z AUTO 15016G22KT 10SM CLR 20/12 A2956 RMK AO2
KCBK 210055Z AUTO 15011KT 10SM CLR 20/12 A2956 RMK AO2
KCBK 210035Z AUTO 16012G16KT 10SM CLR 21/12 A2956 RMK AO2
KCBK 210015Z AUTO 15012KT 10SM CLR 21/12 A2956 RMK AO2
KCBK 202355Z AUTO 16013G19KT 10SM CLR 22/12 A2957 RMK AO2
KCBK 202335Z AUTO 16012G21KT 10SM CLR 23/11 A2957 RMK AO2
KCBK 202315Z AUTO 16016G22KT 10SM CLR 23/11 A2957 RMK AO2
KCBK 202255Z AUTO 16017G24KT 10SM CLR 23/11 A2957 RMK AO2
KCBK 202235Z AUTO 16017G28KT 10SM CLR 23/12 A2957 RMK AO2
KCBK 202215Z AUTO 16019G28KT 10SM CLR 23/12 A2956 RMK AO2
KCBK 202155Z AUTO 17021G28KT 10SM CLR 25/11 A2957 RMK AO2
KCBK 202135Z AUTO 16023G30KT 10SM CLR 26/11 A2958 RMK AO2
KCBK 202115Z AUTO 16020G28KT 10SM CLR 26/11 A2958 RMK AO2
KCBK 202055Z AUTO 19020G28KT 10SM CLR 26/10 A2959 RMK AO2
KCBK 202035Z AUTO 19017G28KT 10SM CLR 27/10 A2959 RMK AO2
KCBK 202015Z AUTO 19019G27KT 10SM CLR 27/10 A2959 RMK AO2
KCBK 201955Z AUTO 19018G25KT 10SM CLR 27/11 A2960 RMK AO2
KCBK 201935Z AUTO 19019G27KT 10SM CLR 26/10 A2961 RMK AO2
KCBK 201910Z AUTO 19016G25KT 10SM CLR 26/11 A2962 RMK AO2
KCBK 201855Z AUTO 20018G23KT 10SM CLR 25/11 A2964 RMK AO2
KCBK 201835Z AUTO 19017G24KT 10SM CLR 25/11 A2965 RMK AO2
KCBK 201815Z AUTO 19013G21KT 10SM CLR 24/12 A2966 RMK AO2
KCBK 201755Z AUTO 19016G25KT 10SM CLR 23/11 A2968 RMK AO2
KCBK 201735Z AUTO 18018G22KT 10SM CLR 23/12 A2968 RMK AO2
KCBK 201715Z AUTO 19014G21KT 10SM CLR 21/12 A2969 RMK AO2
KCBK 201655Z AUTO 20016G24KT 10SM CLR 21/12 A2971 RMK AO2
KCBK 201635Z AUTO 19017G24KT 10SM CLR 20/12 A2971 RMK AO2
KCBK 201615Z AUTO 18018G25KT 10SM CLR 18/12 A2972 RMK AO2
KCBK 201555Z AUTO 18017G26KT 10SM CLR 17/12 A2973 RMK AO2
KCBK 201535Z AUTO 18020G28KT 10SM CLR 17/11 A2974 RMK AO2
KCBK 201515Z AUTO 18019G25KT 10SM CLR 17/11 A2975 RMK AO2
KCBK 201455Z AUTO 18016G26KT 10SM CLR 16/11 A2976 RMK AO2
KCBK 201435Z AUTO 17015G20KT 10SM CLR 15/11 A2976 RMK AO2
KCBK 201415Z AUTO 17015G21KT 10SM CLR 13/10 A2978 RMK AO2
KCBK 201355Z AUTO 17014G18KT 10SM CLR 13/10 A2978 RMK AO2
KCBK 201335Z AUTO 17014G18KT 10SM CLR 13/10 A2979 RMK AO2
KCBK 201315Z AUTO 17013G20KT 10SM CLR 13/10 A2979 RMK AO2
KCBK 201255Z AUTO 16016G21KT 10SM CLR 13/10 A2979 RMK AO2